Time,TemperatureF,DewpointF,PressureIn,WindDirection,WindDirectionDegrees,WindSpeedMPH,WindSpeedGustMPH,Humidity,HourlyPrecipIn,Conditions,Clouds,dailyrainin,SoftwareType,DateUTC
2013-07-23 00:01:00,64.6,63.7,29.82,ESE,119,0.0,0.0,97,0.00,,,0.05,WUHU216DAVISVP2,2013-07-23 04:01:00,
2013-07-23 00:06:00,64.5,63.6,29.82,ESE,119,0.0,0.0,97,0.00,,,0.00,WUHU216DAVISVP2,2013-07-23 04:06:00,
2013-07-23 00:11:00,64.4,63.5,29.82,ESE,119,0.0,0.0,97,0.00,,,0.00,WUHU216DAVISVP2,2013-07-23 04:11:00,
2013-07-23 00:17:00,64.3,63.4,29.82,ESE,119,0.0,0.0,97,0.00,,,0.00,WUHU216DAVISVP2,2013-07-23 04:17:00,
2013-07-23 00:22:00,64.2,63.3,29.81,ESE,119,0.0,0.0,97,0.00,,,0.00,WUHU216DAVISVP2,2013-07-23 04:22:00,
2013-07-23 00:27:00,64.2,63.3,29.81,ESE,119,0.0,0.0,97,0.00,,,0.00,WUHU216DAVISVP2,2013-07-23 04:27:00,
2013-07-23 00:32:00,64.2,63.3,29.81,ESE,119,0.0,0.0,97,0.00,,,0.00,WUHU216DAVISVP2,2013-07-23 04:32:00,
2013-07-23 00:37:00,64.2,63.3,29.81,ESE,119,0.0,0.0,97,0.00,,,0.00,WUHU216DAVISVP2,2013-07-23 04:37:00,
2013-07-23 00:42:00,64.1,63.2,29.81,ESE,119,0.0,0.0,97,0.00,,,0.00,WUHU216DAVISVP2,2013-07-23 04:42:00,
2013-07-23 00:47:00,64.0,63.1,29.81,ESE,119,0.0,0.0,97,0.00,,,0.00,WUHU216DAVISVP2,2013-07-23 04:47:00,
2013-07-23 00:52:00,64.0,63.1,29.80,ESE,119,0.0,0.0,97,0.00,,,0.00,WUHU216DAVISVP2,2013-07-23 04:52:00,
2013-07-23 00:57:00,63.9,63.0,29.80,ESE,119,0.0,0.0,97,0.00,,,0.00,WUHU216DAVISVP2,2013-07-23 04:57:00,
2013-07-23 01:04:00,63.8,62.9,29.80,North,0,0.0,0.0,97,0.00,,,0.00,WUHU216DAVISVP2,2013-07-23 05:04:00,
2013-07-23 01:09:00,63.7,62.8,29.81,ESE,119,0.0,0.0,97,0.00,,,0.00,WUHU216DAVISVP2,2013-07-23 05:09:00,
2013-07-23 01:14:00,63.6,62.7,29.81,ESE,119,0.0,0.0,97,0.00,,,0.00,WUHU216DAVISVP2,2013-07-23 05:14:00,
2013-07-23 01:19:00,63.6,62.7,29.81,ESE,119,0.0,0.0,97,0.00,,,0.00,WUHU216DAVISVP2,2013-07-23 05:19:00,
2013-07-23 01:24:00,63.6,63.0,29.81,ESE,119,0.0,0.0,98,0.00,,,0.00,WUHU216DAVISVP2,2013-07-23 05:24:00,
2013-07-23 01:30:00,63.5,62.9,29.80,ESE,119,0.0,0.0,98,0.00,,,0.00,WUHU216DAVISVP2,2013-07-23 05:30:00,
2013-07-23 01:35:00,63.5,62.9,29.80,ESE,119,0.0,0.0,98,0.00,,,0.00,WUHU216DAVISVP2,2013-07-23 05:35:00,
2013-07-23 01:40:00,63.5,62.9,29.80,ESE,119,0.0,0.0,98,0.00,,,0.00,WUHU216DAVISVP2,2013-07-23 05:40:00,
2013-07-23 01:45:00,63.5,62.9,29.80,ESE,119,0.0,0.0,98,0.00,,,0.00,WUHU216DAVISVP2,2013-07-23 05:45:00,
2013-07-23 01:50:00,63.5,62.9,29.80,ESE,119,0.0,0.0,98,0.00,,,0.00,WUHU216DAVISVP2,2013-07-23 05:50:00,
2013-07-23 01:55:00,63.5,62.9,29.80,ESE,119,0.0,0.0,98,0.00,,,0.00,WUHU216DAVISVP2,2013-07-23 05:55:00,
2013-07-23 02:00:00,63.5,62.9,29.80,ESE,119,0.0,0.0,98,0.00,,,0.00,WUHU216DAVISVP2,2013-07-23 06:00:00,
2013-07-23 02:05:00,63.5,62.9,29.80,ESE,119,0.0,0.0,98,0.00,,,0.00,WUHU216DAVISVP2,2013-07-23 06:05:00,
2013-07-23 02:10:00,63.6,63.0,29.80,ESE,119,0.0,0.0,98,0.00,,,0.00,WUHU216DAVISVP2,2013-07-23 06:10:00,
2013-07-23 02:15:00,63.7,63.1,29.80,ESE,119,0.0,0.0,98,0.00,,,0.00,WUHU216DAVISVP2,2013-07-23 06:15:00,
2013-07-23 02:20:00,63.7,63.1,29.79,ESE,119,0.0,0.0,98,0.00,,,0.00,WUHU216DAVISVP2,2013-07-23 06:20:00,
2013-07-23 02:25:00,63.8,63.2,29.80,ESE,119,0.0,0.0,98,0.00,,,0.00,WUHU216DAVISVP2,2013-07-23 06:25:00,
2013-07-23 02:30:00,63.8,63.2,29.80,ESE,119,0.0,0.0,98,0.00,,,0.00,WUHU216DAVISVP2,2013-07-23 06:30:00,
2013-07-23 02:35:00,63.8,63.2,29.80,ESE,119,0.0,2.0,98,0.00,,,0.00,WUHU216DAVISVP2,2013-07-23 06:35:00,
2013-07-23 02:40:00,63.8,63.2,29.80,ESE,119,0.0,2.0,98,0.00,,,0.00,WUHU216DAVISVP2,2013-07-23 06:40:00,
2013-07-23 02:45:00,63.8,63.2,29.80,ESE,119,0.0,0.0,98,0.00,,,0.00,WUHU216DAVISVP2,2013-07-23 06:45:00,
2013-07-23 02:50:00,63.9,63.3,29.80,ESE,119,0.0,0.0,98,0.00,,,0.00,WUHU216DAVISVP2,2013-07-23 06:50:00,
2013-07-23 02:55:00,64.0,63.4,29.80,ESE,119,0.0,0.0,98,0.00,,,0.00,WUHU216DAVISVP2,2013-07-23 06:55:00,
2013-07-23 03:01:00,64.0,63.4,29.80,ESE,119,0.0,0.0,98,0.00,,,0.00,WUHU216DAVISVP2,2013-07-23 07:01:00,
2013-07-23 03:06:00,64.0,63.4,29.79,ESE,119,0.0,0.0,98,0.00,,,0.00,WUHU216DAVISVP2,2013-07-23 07:06:00,
2013-07-23 03:11:00,64.0,63.4,29.80,ESE,119,0.0,0.0,98,0.00,,,0.00,WUHU216DAVISVP2,2013-07-23 07:11:00,
2013-07-23 03:16:00,64.1,63.5,29.79,ESE,119,0.0,0.0,98,0.00,,,0.00,WUHU216DAVISVP2,2013-07-23 07:16:00,
2013-07-23 03:21:00,64.0,63.4,29.79,ESE,119,0.0,0.0,98,0.00,,,0.00,WUHU216DAVISVP2,2013-07-23 07:21:00,
2013-07-23 03:26:00,64.0,63.4,29.79,ESE,119,0.0,0.0,98,0.00,,,0.00,WUHU216DAVISVP2,2013-07-23 07:26:00,
2013-07-23 03:31:00,64.0,63.4,29.79,ESE,119,0.0,0.0,98,0.00,,,0.00,WUHU216DAVISVP2,2013-07-23 07:31:00,
2013-07-23 03:36:00,64.0,63.4,29.79,ESE,119,0.0,0.0,98,0.00,,,0.00,WUHU216DAVISVP2,2013-07-23 07:36:00,
2013-07-23 03:41:00,63.9,63.3,29.79,ESE,119,0.0,0.0,98,0.00,,,0.00,WUHU216DAVISVP2,2013-07-23 07:41:00,
2013-07-23 03:46:00,63.9,63.3,29.79,ESE,119,0.0,0.0,98,0.00,,,0.00,WUHU216DAVISVP2,2013-07-23 07:46:00,
2013-07-23 03:51:00,64.0,63.4,29.79,ESE,119,0.0,0.0,98,0.00,,,0.00,WUHU216DAVISVP2,2013-07-23 07:51:00,
2013-07-23 03:56:00,64.0,63.4,29.79,ESE,119,0.0,0.0,98,0.00,,,0.00,WUHU216DAVISVP2,2013-07-23 07:56:00,
2013-07-23 04:01:00,64.0,63.4,29.78,ESE,119,0.0,0.0,98,0.00,,,0.00,WUHU216DAVISVP2,2013-07-23 08:01:00,
2013-07-23 04:06:00,63.9,63.3,29.78,ESE,119,0.0,0.0,98,0.00,,,0.00,WUHU216DAVISVP2,2013-07-23 08:06:00,
2013-07-23 04:11:00,64.0,63.4,29.78,ESE,119,0.0,0.0,98,0.00,,,0.00,WUHU216DAVISVP2,2013-07-23 08:11:00,
2013-07-23 04:16:00,64.2,63.9,29.78,ESE,119,0.0,0.0,99,0.00,,,0.00,WUHU216DAVISVP2,2013-07-23 08:16:00,
2013-07-23 04:21:00,64.1,63.8,29.78,ESE,119,0.0,0.0,99,0.00,,,0.00,WUHU216DAVISVP2,2013-07-23 08:21:00,
2013-07-23 04:26:00,64.1,63.8,29.77,ESE,119,0.0,0.0,99,0.00,,,0.00,WUHU216DAVISVP2,2013-07-23 08:26:00,
2013-07-23 04:31:00,64.1,63.8,29.78,ESE,119,0.0,0.0,99,0.00,,,0.00,WUHU216DAVISVP2,2013-07-23 08:31:00,
2013-07-23 04:36:00,64.1,63.8,29.78,ESE,119,0.0,0.0,99,0.00,,,0.00,WUHU216DAVISVP2,2013-07-23 08:36:00,
2013-07-23 04:41:00,64.2,63.9,29.78,ESE,119,0.0,0.0,99,0.00,,,0.00,WUHU216DAVISVP2,2013-07-23 08:41:00,
2013-07-23 04:46:00,64.3,64.0,29.78,ESE,119,0.0,0.0,99,0.00,,,0.00,WUHU216DAVISVP2,2013-07-23 08:46:00,
2013-07-23 04:51:00,64.3,64.0,29.78,ESE,119,0.0,2.0,99,0.00,,,0.00,WUHU216DAVISVP2,2013-07-23 08:51:00,
2013-07-23 04:56:00,64.3,64.0,29.78,ESE,119,0.0,2.0,99,0.00,,,0.00,WUHU216DAVISVP2,2013-07-23 08:56:00,
2013-07-23 05:01:00,64.4,64.1,29.78,ESE,119,0.0,0.0,99,0.00,,,0.00,WUHU216DAVISVP2,2013-07-23 09:01:00,
2013-07-23 05:06:00,64.5,64.2,29.77,ESE,119,0.0,0.0,99,0.00,,,0.00,WUHU216DAVISVP2,2013-07-23 09:06:00,
2013-07-23 05:11:00,64.6,64.3,29.77,SSW,203,0.0,2.0,99,0.00,,,0.00,WUHU216DAVISVP2,2013-07-23 09:11:00,
2013-07-23 05:17:00,64.5,64.2,29.77,SSW,202,0.0,2.0,99,0.00,,,0.00,WUHU216DAVISVP2,2013-07-23 09:17:00,
2013-07-23 05:22:00,64.6,64.3,29.77,SSW,202,0.0,0.0,99,0.00,,,0.00,WUHU216DAVISVP2,2013-07-23 09:22:00,
2013-07-23 05:27:00,64.5,64.2,29.77,SSW,203,0.0,2.0,99,0.00,,,0.00,WUHU216DAVISVP2,2013-07-23 09:27:00,
2013-07-23 05:32:00,64.4,64.1,29.77,SSW,203,0.0,2.0,99,0.00,,,0.00,WUHU216DAVISVP2,2013-07-23 09:32:00,
2013-07-23 05:37:00,64.4,64.1,29.78,SSW,203,0.0,0.0,99,0.00,,,0.00,WUHU216DAVISVP2,2013-07-23 09:37:00,
2013-07-23 05:42:00,64.3,64.0,29.78,SSW,203,0.0,2.0,99,0.00,,,0.00,WUHU216DAVISVP2,2013-07-23 09:42:00,
2013-07-23 05:47:00,64.3,64.0,29.77,SSW,203,0.0,2.0,99,0.00,,,0.00,WUHU216DAVISVP2,2013-07-23 09:47:00,
2013-07-23 05:52:00,64.4,64.1,29.77,South,182,0.0,4.0,99,0.00,,,0.00,WUHU216DAVISVP2,2013-07-23 09:52:00,
2013-07-23 05:57:00,64.4,64.1,29.77,South,184,0.0,4.0,99,0.00,,,0.00,WUHU216DAVISVP2,2013-07-23 09:57:00,
2013-07-23 06:02:00,64.5,64.2,29.77,South,184,0.0,4.0,99,0.01,,,0.01,WUHU216DAVISVP2,2013-07-23 10:02:00,
2013-07-23 06:07:00,64.6,64.3,29.78,WSW,239,0.0,8.0,99,0.01,,,0.01,WUHU216DAVISVP2,2013-07-23 10:07:00,
2013-07-23 06:12:00,64.5,64.2,29.78,SSW,197,0.0,8.0,99,0.01,,,0.01,WUHU216DAVISVP2,2013-07-23 10:12:00,
2013-07-23 06:17:00,64.5,64.2,29.78,South,182,0.0,4.0,99,0.01,,,0.01,WUHU216DAVISVP2,2013-07-23 10:17:00,
2013-07-23 06:22:00,64.3,64.0,29.78,South,182,0.0,4.0,99,0.01,,,0.01,WUHU216DAVISVP2,2013-07-23 10:22:00,
2013-07-23 06:27:00,64.3,64.0,29.79,SSW,192,0.0,4.0,99,0.01,,,0.01,WUHU216DAVISVP2,2013-07-23 10:27:00,
2013-07-23 06:32:00,64.3,64.0,29.79,South,170,0.0,4.0,99,0.01,,,0.01,WUHU216DAVISVP2,2013-07-23 10:32:00,
2013-07-23 06:37:00,64.3,64.0,29.78,South,177,0.0,4.0,99,0.01,,,0.01,WUHU216DAVISVP2,2013-07-23 10:37:00,
2013-07-23 06:42:00,64.4,64.1,29.78,South,172,0.0,8.0,99,0.01,,,0.01,WUHU216DAVISVP2,2013-07-23 10:42:00,
2013-07-23 06:47:00,64.4,64.1,29.78,South,172,0.0,8.0,99,0.01,,,0.01,WUHU216DAVISVP2,2013-07-23 10:47:00,
2013-07-23 06:52:00,64.4,64.1,29.78,SSE,157,2.0,6.0,99,0.01,,,0.01,WUHU216DAVISVP2,2013-07-23 10:52:00,
2013-07-23 06:57:00,64.4,64.1,29.79,SSE,157,0.0,4.0,99,0.01,,,0.01,WUHU216DAVISVP2,2013-07-23 10:57:00,
2013-07-23 07:02:00,64.5,64.2,29.79,SSW,201,0.0,4.0,99,0.00,,,0.01,WUHU216DAVISVP2,2013-07-23 11:02:00,
2013-07-23 07:07:00,64.5,64.2,29.78,South,182,0.0,4.0,99,0.00,,,0.01,WUHU216DAVISVP2,2013-07-23 11:07:00,
2013-07-23 07:12:00,64.5,64.2,29.79,SSE,163,0.0,4.0,99,0.00,,,0.01,WUHU216DAVISVP2,2013-07-23 11:12:00,
2013-07-23 07:18:00,64.6,64.3,29.79,South,172,0.0,4.0,99,0.00,,,0.01,WUHU216DAVISVP2,2013-07-23 11:18:00,
2013-07-23 07:23:00,64.7,64.4,29.79,WSW,240,0.0,4.0,99,0.00,,,0.01,WUHU216DAVISVP2,2013-07-23 11:23:00,
2013-07-23 07:28:00,64.9,64.6,29.80,WSW,240,0.0,4.0,99,0.00,,,0.01,WUHU216DAVISVP2,2013-07-23 11:28:00,
2013-07-23 07:33:00,65.0,64.7,29.80,South,181,0.0,2.0,99,0.00,,,0.01,WUHU216DAVISVP2,2013-07-23 11:33:00,
2013-07-23 07:38:00,65.1,64.8,29.80,WSW,248,2.0,4.0,99,0.00,,,0.01,WUHU216DAVISVP2,2013-07-23 11:38:00,
2013-07-23 07:43:00,65.3,65.0,29.80,WSW,248,0.0,4.0,99,0.00,,,0.01,WUHU216DAVISVP2,2013-07-23 11:43:00,
2013-07-23 07:48:00,65.5,65.2,29.80,WSW,248,0.0,2.0,99,0.00,,,0.01,WUHU216DAVISVP2,2013-07-23 11:48:00,
2013-07-23 07:53:00,65.7,65.4,29.80,WNW,284,0.0,4.0,99,0.00,,,0.01,WUHU216DAVISVP2,2013-07-23 11:53:00,
2013-07-23 07:58:00,65.9,65.6,29.80,WNW,286,0.0,4.0,99,0.00,,,0.01,WUHU216DAVISVP2,2013-07-23 11:58:00,
2013-07-23 08:03:00,66.1,65.8,29.80,WNW,286,0.0,4.0,99,0.00,,,0.01,WUHU216DAVISVP2,2013-07-23 12:03:00,
2013-07-23 08:08:00,66.1,65.8,29.80,SSW,201,0.0,8.0,99,0.00,,,0.01,WUHU216DAVISVP2,2013-07-23 12:08:00,
2013-07-23 08:13:00,66.2,65.9,29.80,WSW,251,0.0,8.0,99,0.00,,,0.01,WUHU216DAVISVP2,2013-07-23 12:13:00,
2013-07-23 08:18:00,66.4,66.1,29.79,West,274,4.0,6.0,99,0.00,,,0.01,WUHU216DAVISVP2,2013-07-23 12:18:00,
2013-07-23 08:23:00,66.5,66.2,29.79,SSW,194,0.0,4.0,99,0.00,,,0.01,WUHU216DAVISVP2,2013-07-23 12:23:00,
2013-07-23 08:28:00,66.8,66.5,29.79,SSW,205,0.0,4.0,99,0.00,,,0.01,WUHU216DAVISVP2,2013-07-23 12:28:00,
2013-07-23 08:33:00,67.0,66.4,29.78,South,184,4.0,6.0,98,0.00,,,0.01,WUHU216DAVISVP2,2013-07-23 12:33:00,
2013-07-23 08:38:00,67.2,66.3,29.78,SW,227,0.0,8.0,97,0.00,,,0.01,WUHU216DAVISVP2,2013-07-23 12:38:00,
2013-07-23 08:43:00,67.6,66.7,29.78,WSW,249,0.0,8.0,97,0.00,,,0.01,WUHU216DAVISVP2,2013-07-23 12:43:00,
2013-07-23 08:48:00,67.9,66.7,29.78,SSW,204,2.0,6.0,96,0.00,,,0.01,WUHU216DAVISVP2,2013-07-23 12:48:00,
2013-07-23 08:53:00,68.3,66.8,29.78,South,182,2.0,8.0,95,0.00,,,0.01,WUHU216DAVISVP2,2013-07-23 12:53:00,
2013-07-23 08:58:00,68.7,67.2,29.78,West,265,2.0,8.0,95,0.00,,,0.01,WUHU216DAVISVP2,2013-07-23 12:58:00,
2013-07-23 09:04:00,69.1,67.0,29.78,WSW,254,0.0,8.0,93,0.00,,,0.01,WUHU216DAVISVP2,2013-07-23 13:04:00,
2013-07-23 09:09:00,69.6,67.5,29.78,South,182,8.0,10.0,93,0.00,,,0.01,WUHU216DAVISVP2,2013-07-23 13:09:00,
2013-07-23 09:14:00,70.1,67.3,29.78,SSE,159,4.0,10.0,91,0.00,,,0.01,WUHU216DAVISVP2,2013-07-23 13:14:00,
2013-07-23 09:19:00,70.6,67.2,29.78,South,173,0.0,10.0,89,0.00,,,0.01,WUHU216DAVISVP2,2013-07-23 13:19:00,
2013-07-23 09:24:00,71.2,68.1,29.78,South,173,0.0,8.0,90,0.00,,,0.01,WUHU216DAVISVP2,2013-07-23 13:24:00,
2013-07-23 09:29:00,71.7,68.6,29.78,WSW,243,4.0,6.0,90,0.00,,,0.01,WUHU216DAVISVP2,2013-07-23 13:29:00,
2013-07-23 09:34:00,72.2,68.1,29.77,WSW,237,6.0,6.0,87,0.00,,,0.01,WUHU216DAVISVP2,2013-07-23 13:34:00,
2013-07-23 09:39:00,72.5,68.1,29.77,SSW,201,0.0,6.0,86,0.00,,,0.01,WUHU216DAVISVP2,2013-07-23 13:39:00,
2013-07-23 09:44:00,73.0,68.3,29.77,SSE,163,0.0,6.0,85,0.00,,,0.01,WUHU216DAVISVP2,2013-07-23 13:44:00,
2013-07-23 09:49:00,73.6,68.5,29.77,SSW,211,4.0,8.0,84,0.00,,,0.01,WUHU216DAVISVP2,2013-07-23 13:49:00,
2013-07-23 09:54:00,74.0,69.2,29.76,SSE,148,4.0,8.0,85,0.00,,,0.01,WUHU216DAVISVP2,2013-07-23 13:54:00,
2013-07-23 09:59:00,74.3,68.9,29.76,SSE,163,6.0,8.0,83,0.00,,,0.01,WUHU216DAVISVP2,2013-07-23 13:59:00,
2013-07-23 10:04:00,74.8,68.7,29.77,South,180,6.0,8.0,81,0.00,,,0.01,WUHU216DAVISVP2,2013-07-23 14:04:00,
2013-07-23 10:09:00,74.9,69.1,29.77,SSW,206,4.0,8.0,82,0.00,,,0.01,WUHU216DAVISVP2,2013-07-23 14:09:00,
2013-07-23 10:14:00,75.3,68.4,29.77,NNW,339,2.0,10.0,79,0.00,,,0.01,WUHU216DAVISVP2,2013-07-23 14:14:00,
2013-07-23 10:19:00,75.7,68.5,29.77,West,269,0.0,10.0,78,0.00,,,0.01,WUHU216DAVISVP2,2013-07-23 14:19:00,
2013-07-23 10:24:00,75.8,68.6,29.77,NW,307,0.0,10.0,78,0.00,,,0.01,WUHU216DAVISVP2,2013-07-23 14:24:00,
2013-07-23 10:29:00,76.2,68.2,29.76,SW,227,4.0,10.0,76,0.00,,,0.01,WUHU216DAVISVP2,2013-07-23 14:29:00,
2013-07-23 10:34:00,76.8,67.7,29.76,ESE,111,0.0,6.0,73,0.00,,,0.01,WUHU216DAVISVP2,2013-07-23 14:34:00,
2013-07-23 10:39:00,77.2,68.8,29.76,ESE,118,2.0,6.0,75,0.00,,,0.01,WUHU216DAVISVP2,2013-07-23 14:39:00,
2013-07-23 10:44:00,77.6,68.4,29.76,WNW,288,0.0,8.0,73,0.00,,,0.01,WUHU216DAVISVP2,2013-07-23 14:44:00,
2013-07-23 10:50:00,77.8,67.4,29.76,SSE,157,4.0,10.0,70,0.00,,,0.01,WUHU216DAVISVP2,2013-07-23 14:50:00,
2013-07-23 10:55:00,78.1,68.1,29.76,WSW,253,2.0,10.0,71,0.00,,,0.01,WUHU216DAVISVP2,2013-07-23 14:55:00,
2013-07-23 11:00:00,78.5,69.3,29.77,NNW,336,0.0,8.0,73,0.00,,,0.01,WUHU216DAVISVP2,2013-07-23 15:00:00,
2013-07-23 11:05:00,78.6,67.8,29.77,WSW,243,2.0,8.0,69,0.00,,,0.01,WUHU216DAVISVP2,2013-07-23 15:05:00,
2013-07-23 11:10:00,78.5,67.7,29.77,WNW,293,0.0,6.0,69,0.00,,,0.01,WUHU216DAVISVP2,2013-07-23 15:10:00,
2013-07-23 11:15:00,78.6,68.2,29.77,SW,225,0.0,8.0,70,0.00,,,0.01,WUHU216DAVISVP2,2013-07-23 15:15:00,
2013-07-23 11:20:00,78.9,69.7,29.77,North,355,4.0,8.0,73,0.00,,,0.01,WUHU216DAVISVP2,2013-07-23 15:20:00,
2013-07-23 11:25:00,78.8,68.0,29.77,SSW,209,0.0,8.0,69,0.00,,,0.01,WUHU216DAVISVP2,2013-07-23 15:25:00,
2013-07-23 11:30:00,78.9,68.5,29.77,North,10,0.0,12.0,70,0.00,,,0.01,WUHU216DAVISVP2,2013-07-23 15:30:00,
2013-07-23 11:35:00,79.2,68.8,29.77,NNW,327,2.0,12.0,70,0.00,,,0.01,WUHU216DAVISVP2,2013-07-23 15:35:00,
2013-07-23 11:40:00,79.4,69.0,29.77,WSW,254,2.0,6.0,70,0.00,,,0.01,WUHU216DAVISVP2,2013-07-23 15:40:00,
2013-07-23 11:45:00,79.3,68.9,29.77,West,278,0.0,6.0,70,0.00,,,0.01,WUHU216DAVISVP2,2013-07-23 15:45:00,
2013-07-23 11:50:00,78.9,68.5,29.77,NW,304,0.0,6.0,70,0.00,,,0.01,WUHU216DAVISVP2,2013-07-23 15:50:00,
2013-07-23 11:55:00,78.7,67.9,29.77,NNE,22,0.0,6.0,69,0.00,,,0.01,WUHU216DAVISVP2,2013-07-23 15:55:00,
2013-07-23 12:00:00,78.8,68.8,29.77,WSW,252,0.0,6.0,71,0.00,,,0.01,WUHU216DAVISVP2,2013-07-23 16:00:00,
2013-07-23 12:05:00,79.4,69.8,29.77,NNE,19,2.0,6.0,72,0.00,,,0.01,WUHU216DAVISVP2,2013-07-23 16:05:00,
2013-07-23 12:10:00,79.2,68.4,29.77,North,11,0.0,4.0,69,0.00,,,0.01,WUHU216DAVISVP2,2013-07-23 16:10:00,
2013-07-23 12:15:00,78.9,68.1,29.77,NE,37,0.0,4.0,69,0.00,,,0.01,WUHU216DAVISVP2,2013-07-23 16:15:00,
2013-07-23 12:20:00,79.2,70.0,29.77,NE,37,0.0,4.0,73,0.00,,,0.01,WUHU216DAVISVP2,2013-07-23 16:20:00,
2013-07-23 12:25:00,79.6,68.8,29.77,NE,36,0.0,2.0,69,0.00,,,0.01,WUHU216DAVISVP2,2013-07-23 16:25:00,
2013-07-23 12:31:00,79.8,68.5,29.77,SW,231,2.0,6.0,68,0.00,,,0.01,WUHU216DAVISVP2,2013-07-23 16:31:00,
2013-07-23 12:36:00,79.4,69.4,29.77,SW,231,0.0,6.0,71,0.00,,,0.01,WUHU216DAVISVP2,2013-07-23 16:36:00,
2013-07-23 12:41:00,78.7,69.5,29.77,SW,231,0.0,2.0,73,0.00,,,0.01,WUHU216DAVISVP2,2013-07-23 16:41:00,
2013-07-23 12:46:00,78.2,68.6,29.77,SW,231,0.0,0.0,72,0.00,,,0.01,WUHU216DAVISVP2,2013-07-23 16:46:00,
2013-07-23 12:51:00,77.7,69.3,29.77,SW,231,0.0,0.0,75,0.00,,,0.01,WUHU216DAVISVP2,2013-07-23 16:51:00,
2013-07-23 12:56:00,77.4,70.5,29.77,SW,231,0.0,0.0,79,0.00,,,0.01,WUHU216DAVISVP2,2013-07-23 16:56:00,
2013-07-23 13:01:00,77.2,69.6,29.76,SW,231,2.0,2.0,77,0.00,,,0.01,WUHU216DAVISVP2,2013-07-23 17:01:00,
2013-07-23 13:06:00,77.1,70.2,29.76,SW,231,0.0,2.0,79,0.00,,,0.01,WUHU216DAVISVP2,2013-07-23 17:06:00,
2013-07-23 13:11:00,77.2,70.7,29.76,SW,231,0.0,2.0,80,0.00,,,0.01,WUHU216DAVISVP2,2013-07-23 17:11:00,
2013-07-23 13:16:00,77.1,69.1,29.75,SW,231,0.0,0.0,76,0.00,,,0.01,WUHU216DAVISVP2,2013-07-23 17:16:00,
2013-07-23 13:21:00,77.2,69.6,29.75,SW,231,0.0,2.0,77,0.00,,,0.01,WUHU216DAVISVP2,2013-07-23 17:21:00,
2013-07-23 13:26:00,77.0,70.5,29.75,SW,229,0.0,2.0,80,0.00,,,0.01,WUHU216DAVISVP2,2013-07-23 17:26:00,
2013-07-23 13:31:00,76.8,71.0,29.75,SW,229,0.0,2.0,82,0.01,,,0.02,WUHU216DAVISVP2,2013-07-23 17:31:00,
2013-07-23 13:36:00,75.7,70.6,29.76,SW,229,0.0,0.0,84,0.02,,,0.03,WUHU216DAVISVP2,2013-07-23 17:36:00,
2013-07-23 13:41:00,75.1,71.3,29.75,SW,229,0.0,2.0,88,0.04,,,0.05,WUHU216DAVISVP2,2013-07-23 17:41:00,
2013-07-23 13:46:00,74.7,71.2,29.75,SW,229,0.0,2.0,89,0.04,,,0.05,WUHU216DAVISVP2,2013-07-23 17:46:00,
2013-07-23 13:51:00,74.4,71.3,29.75,SW,229,0.0,0.0,90,0.04,,,0.05,WUHU216DAVISVP2,2013-07-23 17:51:00,
2013-07-23 13:56:00,74.3,71.5,29.74,SW,229,0.0,0.0,91,0.04,,,0.05,WUHU216DAVISVP2,2013-07-23 17:56:00,
2013-07-23 14:02:00,74.7,72.5,29.75,SW,229,0.0,2.0,93,0.04,,,0.05,WUHU216DAVISVP2,2013-07-23 18:02:00,
2013-07-23 14:07:00,75.0,71.2,29.73,SSE,167,0.0,6.0,88,0.04,,,0.05,WUHU216DAVISVP2,2013-07-23 18:07:00,
2013-07-23 14:12:00,75.3,70.8,29.73,ENE,74,0.0,8.0,86,0.04,,,0.05,WUHU216DAVISVP2,2013-07-23 18:12:00,
2013-07-23 14:17:00,75.4,71.3,29.73,ESE,122,2.0,8.0,87,0.04,,,0.05,WUHU216DAVISVP2,2013-07-23 18:17:00,
2013-07-23 14:22:00,75.6,71.5,29.73,East,101,0.0,6.0,87,0.04,,,0.05,WUHU216DAVISVP2,2013-07-23 18:22:00,
2013-07-23 14:27:00,75.7,71.2,29.73,East,101,0.0,6.0,86,0.04,,,0.05,WUHU216DAVISVP2,2013-07-23 18:27:00,
2013-07-23 14:33:00,75.6,71.5,29.72,East,101,0.0,2.0,87,0.02,,,0.05,WUHU216DAVISVP2,2013-07-23 18:33:00,
2013-07-23 14:38:00,75.0,70.9,29.71,SSE,166,0.0,6.0,87,0.00,,,0.05,WUHU216DAVISVP2,2013-07-23 18:38:00,
2013-07-23 14:43:00,74.2,70.7,29.73,WSW,248,6.0,10.0,89,0.00,,,0.05,WUHU216DAVISVP2,2013-07-23 18:43:00,
2013-07-23 14:48:00,73.1,70.0,29.74,SSW,192,4.0,10.0,90,0.21,,,0.26,WUHU216DAVISVP2,2013-07-23 18:48:00,
2013-07-23 14:53:00,72.2,69.7,29.72,ENE,75,4.0,10.0,92,0.34,,,0.39,WUHU216DAVISVP2,2013-07-23 18:53:00,
2013-07-23 14:59:00,71.4,68.9,29.73,NE,35,0.0,6.0,92,0.36,,,0.41,WUHU216DAVISVP2,2013-07-23 18:59:00,
2013-07-23 15:04:00,70.7,68.5,29.73,SE,125,2.0,4.0,93,0.36,,,0.41,WUHU216DAVISVP2,2013-07-23 19:04:00,
2013-07-23 15:10:00,70.6,68.8,29.74,South,188,2.0,4.0,94,0.36,,,0.41,WUHU216DAVISVP2,2013-07-23 19:10:00,
2013-07-23 15:15:00,70.5,69.0,29.75,WNW,295,2.0,6.0,95,0.36,,,0.41,WUHU216DAVISVP2,2013-07-23 19:15:00,
2013-07-23 15:20:00,70.1,68.6,29.74,East,82,2.0,16.0,95,0.41,,,0.46,WUHU216DAVISVP2,2013-07-23 19:20:00,
2013-07-23 15:25:00,69.9,68.4,29.74,SE,132,2.0,16.0,95,0.41,,,0.46,WUHU216DAVISVP2,2013-07-23 19:25:00,
2013-07-23 15:30:00,69.6,68.1,29.73,South,174,0.0,8.0,95,0.41,,,0.46,WUHU216DAVISVP2,2013-07-23 19:30:00,
2013-07-23 15:35:00,69.6,68.1,29.73,SW,234,0.0,8.0,95,0.41,,,0.46,WUHU216DAVISVP2,2013-07-23 19:35:00,
2013-07-23 15:40:00,69.7,68.2,29.73,South,186,4.0,8.0,95,0.41,,,0.46,WUHU216DAVISVP2,2013-07-23 19:40:00,
2013-07-23 15:45:00,70.0,68.8,29.72,South,186,0.0,8.0,96,0.35,,,0.46,WUHU216DAVISVP2,2013-07-23 19:45:00,
2013-07-23 15:50:00,71.1,70.2,29.72,South,169,4.0,10.0,97,0.15,,,0.46,WUHU216DAVISVP2,2013-07-23 19:50:00,
2013-07-23 15:55:00,71.4,69.6,29.71,South,181,2.0,14.0,94,0.06,,,0.46,WUHU216DAVISVP2,2013-07-23 19:55:00,
2013-07-23 16:00:00,71.9,69.1,29.71,WSW,240,4.0,14.0,91,0.05,,,0.46,WUHU216DAVISVP2,2013-07-23 20:00:00,
2013-07-23 16:06:00,72.9,70.1,29.71,SSE,165,14.0,14.0,91,0.05,,,0.46,WUHU216DAVISVP2,2013-07-23 20:06:00,
2013-07-23 16:11:00,73.8,70.3,29.71,South,174,0.0,14.0,89,0.05,,,0.46,WUHU216DAVISVP2,2013-07-23 20:11:00,
2013-07-23 16:16:00,74.6,70.2,29.71,NNW,342,2.0,6.0,86,0.05,,,0.46,WUHU216DAVISVP2,2013-07-23 20:16:00,
2013-07-23 16:21:00,75.4,71.6,29.71,West,277,2.0,6.0,88,0.00,,,0.46,WUHU216DAVISVP2,2013-07-23 20:21:00,
2013-07-23 16:26:00,76.3,71.5,29.71,SW,225,0.0,8.0,85,0.00,,,0.46,WUHU216DAVISVP2,2013-07-23 20:26:00,
2013-07-23 16:31:00,76.9,70.7,29.71,NW,325,0.0,10.0,81,0.00,,,0.46,WUHU216DAVISVP2,2013-07-23 20:31:00,
2013-07-23 16:36:00,77.3,70.8,29.71,WNW,285,0.0,12.0,80,0.00,,,0.46,WUHU216DAVISVP2,2013-07-23 20:36:00,
2013-07-23 16:41:00,78.1,71.2,29.71,NW,304,0.0,12.0,79,0.00,,,0.46,WUHU216DAVISVP2,2013-07-23 20:41:00,
2013-07-23 16:46:00,78.5,70.8,29.71,WSW,248,0.0,8.0,77,0.00,,,0.46,WUHU216DAVISVP2,2013-07-23 20:46:00,
2013-07-23 16:51:00,79.1,71.4,29.71,WSW,248,0.0,6.0,77,0.00,,,0.46,WUHU216DAVISVP2,2013-07-23 20:51:00,
2013-07-23 16:56:00,79.6,73.4,29.71,SSW,201,0.0,6.0,81,0.00,,,0.46,WUHU216DAVISVP2,2013-07-23 20:56:00,
2013-07-23 17:02:00,80.0,73.4,29.71,South,176,0.0,4.0,80,0.00,,,0.46,WUHU216DAVISVP2,2013-07-23 21:02:00,
2013-07-23 17:07:00,80.3,73.0,29.71,South,176,0.0,4.0,78,0.00,,,0.46,WUHU216DAVISVP2,2013-07-23 21:07:00,
2013-07-23 17:12:00,80.5,73.1,29.71,SW,224,0.0,4.0,78,0.00,,,0.46,WUHU216DAVISVP2,2013-07-23 21:12:00,
2013-07-23 17:17:00,80.7,73.0,29.71,WNW,300,4.0,6.0,77,0.00,,,0.46,WUHU216DAVISVP2,2013-07-23 21:17:00,
2013-07-23 17:22:00,80.9,72.4,29.70,North,360,2.0,6.0,75,0.00,,,0.46,WUHU216DAVISVP2,2013-07-23 21:22:00,
2013-07-23 17:27:00,80.9,72.8,29.70,West,275,0.0,10.0,76,0.00,,,0.46,WUHU216DAVISVP2,2013-07-23 21:27:00,
2013-07-23 17:32:00,81.4,72.9,29.70,West,267,2.0,10.0,75,0.00,,,0.46,WUHU216DAVISVP2,2013-07-23 21:32:00,
2013-07-23 17:37:00,81.8,72.9,29.70,WSW,242,0.0,6.0,74,0.00,,,0.46,WUHU216DAVISVP2,2013-07-23 21:37:00,
2013-07-23 17:42:00,81.7,72.4,29.70,NW,317,0.0,6.0,73,0.00,,,0.46,WUHU216DAVISVP2,2013-07-23 21:42:00,
2013-07-23 17:47:00,81.6,72.7,29.70,NNE,32,0.0,6.0,74,0.00,,,0.46,WUHU216DAVISVP2,2013-07-23 21:47:00,
2013-07-23 17:52:00,81.0,72.5,29.69,SW,232,0.0,6.0,75,0.00,,,0.46,WUHU216DAVISVP2,2013-07-23 21:52:00,
2013-07-23 17:57:00,80.4,71.9,29.68,West,262,0.0,6.0,75,0.00,,,0.46,WUHU216DAVISVP2,2013-07-23 21:57:00,
2013-07-23 18:02:00,79.9,72.2,29.67,WSW,254,0.0,6.0,77,0.00,,,0.46,WUHU216DAVISVP2,2013-07-23 22:02:00,
2013-07-23 18:07:00,79.8,72.1,29.67,WSW,250,0.0,6.0,77,0.00,,,0.46,WUHU216DAVISVP2,2013-07-23 22:07:00,
2013-07-23 18:13:00,79.8,72.5,29.67,WSW,250,0.0,6.0,78,0.00,,,0.46,WUHU216DAVISVP2,2013-07-23 22:13:00,
2013-07-23 18:18:00,79.8,71.7,29.67,North,355,0.0,10.0,76,0.00,,,0.46,WUHU216DAVISVP2,2013-07-23 22:18:00,
2013-07-23 18:23:00,79.7,72.4,29.68,NNW,332,0.0,10.0,78,0.00,,,0.46,WUHU216DAVISVP2,2013-07-23 22:23:00,
2013-07-23 18:28:00,79.4,72.4,29.68,NNE,25,2.0,10.0,79,0.00,,,0.46,WUHU216DAVISVP2,2013-07-23 22:28:00,
2013-07-23 18:33:00,79.3,71.2,29.68,NE,36,2.0,8.0,76,0.00,,,0.46,WUHU216DAVISVP2,2013-07-23 22:33:00,
2013-07-23 18:39:00,79.2,71.9,29.68,North,360,2.0,6.0,78,0.00,,,0.46,WUHU216DAVISVP2,2013-07-23 22:39:00,
2013-07-23 18:44:00,79.1,71.4,29.68,North,360,0.0,4.0,77,0.00,,,0.46,WUHU216DAVISVP2,2013-07-23 22:44:00,
2013-07-23 18:49:00,79.1,71.8,29.68,North,360,0.0,2.0,78,0.00,,,0.46,WUHU216DAVISVP2,2013-07-23 22:49:00,
2013-07-23 18:54:00,78.9,70.9,29.69,WNW,293,0.0,6.0,76,0.00,,,0.46,WUHU216DAVISVP2,2013-07-23 22:54:00,
2013-07-23 18:59:00,79.0,71.3,29.68,NNW,327,0.0,8.0,77,0.00,,,0.46,WUHU216DAVISVP2,2013-07-23 22:59:00,
2013-07-23 19:04:00,78.9,70.1,29.68,NW,323,0.0,8.0,74,0.00,,,0.46,WUHU216DAVISVP2,2013-07-23 23:04:00,
2013-07-23 19:09:00,78.9,70.5,29.68,NW,323,4.0,8.0,75,0.00,,,0.46,WUHU216DAVISVP2,2013-07-23 23:09:00,
2013-07-23 19:15:00,78.8,70.8,29.69,NW,316,2.0,8.0,76,0.00,,,0.46,WUHU216DAVISVP2,2013-07-23 23:15:00,
2013-07-23 19:20:00,78.4,71.1,29.69,WNW,292,6.0,10.0,78,0.00,,,0.46,WUHU216DAVISVP2,2013-07-23 23:20:00,
2013-07-23 19:25:00,77.9,71.0,29.70,NNW,328,0.0,10.0,79,0.00,,,0.46,WUHU216DAVISVP2,2013-07-23 23:25:00,
2013-07-23 19:30:00,77.4,71.2,29.70,NW,305,2.0,8.0,81,0.00,,,0.46,WUHU216DAVISVP2,2013-07-23 23:30:00,
2013-07-23 19:35:00,76.9,71.1,29.71,WNW,284,4.0,10.0,82,0.00,,,0.46,WUHU216DAVISVP2,2013-07-23 23:35:00,
2013-07-23 19:40:00,76.4,70.2,29.71,NW,319,4.0,10.0,81,0.00,,,0.46,WUHU216DAVISVP2,2013-07-23 23:40:00,
2013-07-23 19:45:00,75.8,68.9,29.71,NW,312,0.0,8.0,79,0.00,,,0.46,WUHU216DAVISVP2,2013-07-23 23:45:00,
2013-07-23 19:51:00,75.3,68.4,29.71,West,280,2.0,8.0,79,0.00,,,0.46,WUHU216DAVISVP2,2013-07-23 23:51:00,
2013-07-23 19:56:00,74.6,68.1,29.71,NW,321,0.0,6.0,80,0.00,,,0.46,WUHU216DAVISVP2,2013-07-23 23:56:00,
2013-07-23 20:01:00,74.2,68.4,29.72,NW,317,0.0,6.0,82,0.00,,,0.46,WUHU216DAVISVP2,2013-07-24 00:01:00,
2013-07-23 20:07:00,73.8,69.0,29.72,NW,311,6.0,8.0,85,0.00,,,0.46,WUHU216DAVISVP2,2013-07-24 00:07:00,
2013-07-23 20:12:00,73.4,69.3,29.72,NW,315,2.0,12.0,87,0.00,,,0.46,WUHU216DAVISVP2,2013-07-24 00:12:00,
2013-07-23 20:17:00,73.0,68.6,29.73,NW,305,4.0,12.0,86,0.00,,,0.46,WUHU216DAVISVP2,2013-07-24 00:17:00,
2013-07-23 20:22:00,72.6,68.5,29.73,West,265,2.0,12.0,87,0.00,,,0.46,WUHU216DAVISVP2,2013-07-24 00:22:00,
2013-07-23 20:27:00,72.4,68.3,29.73,South,169,0.0,12.0,87,0.00,,,0.46,WUHU216DAVISVP2,2013-07-24 00:27:00,
2013-07-23 20:33:00,72.2,68.1,29.74,WNW,286,2.0,14.0,87,0.00,,,0.46,WUHU216DAVISVP2,2013-07-24 00:33:00,
2013-07-23 20:38:00,72.0,67.9,29.74,WNW,296,8.0,14.0,87,0.00,,,0.46,WUHU216DAVISVP2,2013-07-24 00:38:00,
2013-07-23 20:43:00,71.8,68.1,29.73,North,5,0.0,12.0,88,0.00,,,0.46,WUHU216DAVISVP2,2013-07-24 00:43:00,
2013-07-23 20:48:00,71.5,67.8,29.74,NE,40,4.0,12.0,88,0.00,,,0.46,WUHU216DAVISVP2,2013-07-24 00:48:00,
2013-07-23 20:53:00,71.1,67.0,29.74,NE,36,10.0,16.0,87,0.00,,,0.46,WUHU216DAVISVP2,2013-07-24 00:53:00,
2013-07-23 20:58:00,70.6,66.5,29.75,WNW,298,0.0,16.0,87,0.00,,,0.46,WUHU216DAVISVP2,2013-07-24 00:58:00,
2013-07-23 21:03:00,70.4,66.4,29.75,North,360,4.0,16.0,87,0.00,,,0.46,WUHU216DAVISVP2,2013-07-24 01:03:00,
2013-07-23 21:11:00,70.2,66.2,29.74,ENE,64,0.0,16.0,87,0.00,,,0.46,WUHU216DAVISVP2,2013-07-24 01:11:00,
2013-07-23 21:16:00,69.8,65.8,29.75,NNE,15,10.0,10.0,87,0.00,,,0.46,WUHU216DAVISVP2,2013-07-24 01:16:00,
2013-07-23 21:21:00,69.6,65.6,29.75,SSW,205,0.0,10.0,87,0.00,,,0.46,WUHU216DAVISVP2,2013-07-24 01:21:00,
2013-07-23 21:26:00,69.4,65.7,29.75,NNE,17,2.0,8.0,88,0.00,,,0.46,WUHU216DAVISVP2,2013-07-24 01:26:00,
2013-07-23 21:31:00,69.3,65.6,29.75,SE,135,4.0,8.0,88,0.00,,,0.46,WUHU216DAVISVP2,2013-07-24 01:31:00,
2013-07-23 21:36:00,69.2,65.5,29.76,East,96,2.0,10.0,88,0.00,,,0.46,WUHU216DAVISVP2,2013-07-24 01:36:00,
2013-07-23 21:42:00,69.2,65.5,29.77,NNW,338,4.0,10.0,88,0.00,,,0.46,WUHU216DAVISVP2,2013-07-24 01:42:00,
2013-07-23 21:48:00,69.3,65.3,29.77,NNE,20,0.0,18.0,87,0.00,,,0.46,WUHU216DAVISVP2,2013-07-24 01:48:00,
2013-07-23 21:53:00,69.3,65.3,29.78,NNE,17,2.0,18.0,87,0.00,,,0.46,WUHU216DAVISVP2,2013-07-24 01:53:00,
2013-07-23 21:58:00,69.3,65.3,29.78,WNW,298,2.0,6.0,87,0.00,,,0.46,WUHU216DAVISVP2,2013-07-24 01:58:00,
2013-07-23 22:03:00,69.2,64.5,29.79,NNE,25,14.0,16.0,85,0.00,,,0.46,WUHU216DAVISVP2,2013-07-24 02:03:00,
2013-07-23 22:08:00,69.2,64.2,29.79,NNE,33,2.0,16.0,84,0.00,,,0.46,WUHU216DAVISVP2,2013-07-24 02:08:00,
2013-07-23 22:13:00,69.1,64.1,29.79,NNE,25,8.0,16.0,84,0.00,,,0.46,WUHU216DAVISVP2,2013-07-24 02:13:00,
2013-07-23 22:19:00,69.0,63.7,29.79,West,273,2.0,16.0,83,0.00,,,0.46,WUHU216DAVISVP2,2013-07-24 02:19:00,
2013-07-23 22:24:00,68.9,63.6,29.79,NNE,24,2.0,8.0,83,0.00,,,0.46,WUHU216DAVISVP2,2013-07-24 02:24:00,
2013-07-23 22:30:00,68.8,63.5,29.79,NE,34,4.0,8.0,83,0.00,,,0.46,WUHU216DAVISVP2,2013-07-24 02:30:00,
2013-07-23 22:35:00,68.7,63.7,29.79,ENE,78,0.0,8.0,84,0.00,,,0.46,WUHU216DAVISVP2,2013-07-24 02:35:00,
2013-07-23 22:40:00,68.5,63.2,29.80,East,95,6.0,12.0,83,0.00,,,0.46,WUHU216DAVISVP2,2013-07-24 02:40:00,
2013-07-23 22:45:00,68.5,63.2,29.80,NNE,22,0.0,12.0,83,0.00,,,0.46,WUHU216DAVISVP2,2013-07-24 02:45:00,
2013-07-23 22:50:00,68.3,63.0,29.80,NE,55,0.0,12.0,83,0.00,,,0.46,WUHU216DAVISVP2,2013-07-24 02:50:00,
2013-07-23 22:56:00,68.2,62.5,29.81,West,275,2.0,10.0,82,0.00,,,0.46,WUHU216DAVISVP2,2013-07-24 02:56:00,
2013-07-23 23:01:00,68.0,62.7,29.81,East,88,6.0,10.0,83,0.00,,,0.46,WUHU216DAVISVP2,2013-07-24 03:01:00,
2013-07-23 23:06:00,67.8,62.2,29.81,NE,46,2.0,12.0,82,0.00,,,0.46,WUHU216DAVISVP2,2013-07-24 03:06:00,
2013-07-23 23:12:00,67.5,62.2,29.81,SE,126,0.0,12.0,83,0.00,,,0.46,WUHU216DAVISVP2,2013-07-24 03:12:00,
2013-07-23 23:17:00,67.4,62.1,29.81,ESE,109,2.0,6.0,83,0.00,,,0.46,WUHU216DAVISVP2,2013-07-24 03:17:00,
2013-07-23 23:22:00,67.3,62.3,29.81,ESE,108,0.0,10.0,84,0.00,,,0.46,WUHU216DAVISVP2,2013-07-24 03:22:00,
2013-07-23 23:27:00,67.2,62.2,29.82,NNE,17,0.0,10.0,84,0.00,,,0.46,WUHU216DAVISVP2,2013-07-24 03:27:00,
2013-07-23 23:32:00,67.1,61.8,29.82,NNE,21,6.0,10.0,83,0.00,,,0.46,WUHU216DAVISVP2,2013-07-24 03:32:00,
2013-07-23 23:37:00,67.1,61.8,29.83,ESE,105,0.0,10.0,83,0.00,,,0.46,WUHU216DAVISVP2,2013-07-24 03:37:00,
2013-07-23 23:42:00,67.0,61.7,29.83,NW,315,0.0,6.0,83,0.00,,,0.46,WUHU216DAVISVP2,2013-07-24 03:42:00,
2013-07-23 23:48:00,66.9,60.9,29.83,North,11,6.0,10.0,81,0.00,,,0.46,WUHU216DAVISVP2,2013-07-24 03:48:00,
2013-07-23 23:58:00,66.7,60.4,29.83,NE,38,0.0,16.0,80,0.00,,,0.46,WUHU216DAVISVP2,2013-07-24 03:58:00,